sensor_id;sensor_type;location;lat;lon;timestamp;P1;durP1;ratioP1;P2;durP2;ratioP2
36291;SDS011;22327;51.208;6.418;2024-02-26T00:01:41;2.67;;;1.20;;
36291;SDS011;22327;51.208;6.418;2024-02-26T00:04:43;2.08;;;1.00;;
36291;SDS011;22327;51.208;6.418;2024-02-26T00:07:44;2.10;;;1.30;;
36291;SDS011;22327;51.208;6.418;2024-02-26T00:10:45;0.80;;;0.80;;
36291;SDS011;22327;51.208;6.418;2024-02-26T00:13:45;2.42;;;0.82;;
36291;SDS011;22327;51.208;6.418;2024-02-26T00:16:46;1.98;;;0.88;;
36291;SDS011;22327;51.208;6.418;2024-02-26T00:19:46;3.13;;;0.95;;
36291;SDS011;22327;51.208;6.418;2024-02-26T00:22:47;1.95;;;0.80;;
36291;SDS011;22327;51.208;6.418;2024-02-26T00:25:47;2.20;;;1.27;;
36291;SDS011;22327;51.208;6.418;2024-02-26T00:28:48;2.30;;;1.10;;
36291;SDS011;22327;51.208;6.418;2024-02-26T00:31:48;2.70;;;1.20;;
36291;SDS011;22327;51.208;6.418;2024-02-26T00:34:49;1.38;;;1.00;;
36291;SDS011;22327;51.208;6.418;2024-02-26T00:37:50;2.03;;;1.00;;
36291;SDS011;22327;51.208;6.418;2024-02-26T00:40:51;1.50;;;0.90;;
36291;SDS011;22327;51.208;6.418;2024-02-26T00:43:51;1.58;;;0.88;;
36291;SDS011;22327;51.208;6.418;2024-02-26T00:46:52;1.90;;;1.00;;
36291;SDS011;22327;51.208;6.418;2024-02-26T00:49:52;2.13;;;1.00;;
36291;SDS011;22327;51.208;6.418;2024-02-26T00:52:53;2.00;;;1.10;;
36291;SDS011;22327;51.208;6.418;2024-02-26T00:55:53;1.45;;;1.02;;
36291;SDS011;22327;51.208;6.418;2024-02-26T00:58:54;1.10;;;0.90;;
36291;SDS011;22327;51.208;6.418;2024-02-26T01:01:54;1.42;;;1.00;;
36291;SDS011;22327;51.208;6.418;2024-02-26T01:04:55;2.28;;;1.23;;
36291;SDS011;22327;51.208;6.418;2024-02-26T01:07:55;2.25;;;1.40;;
36291;SDS011;22327;51.208;6.418;2024-02-26T01:10:56;1.52;;;1.30;;
36291;SDS011;22327;51.208;6.418;2024-02-26T01:13:56;1.60;;;1.08;;
36291;SDS011;22327;51.208;6.418;2024-02-26T01:16:57;1.70;;;1.13;;
36291;SDS011;22327;51.208;6.418;2024-02-26T01:19:57;1.88;;;1.48;;
36291;SDS011;22327;51.208;6.418;2024-02-26T01:22:58;1.75;;;1.42;;
36291;SDS011;22327;51.208;6.418;2024-02-26T01:25:58;3.10;;;1.40;;
36291;SDS011;22327;51.208;6.418;2024-02-26T01:28:59;1.58;;;1.30;;
36291;SDS011;22327;51.208;6.418;2024-02-26T01:31:59;1.33;;;1.13;;
36291;SDS011;22327;51.208;6.418;2024-02-26T01:35:00;3.15;;;1.55;;
36291;SDS011;22327;51.208;6.418;2024-02-26T01:38:00;1.73;;;1.33;;
36291;SDS011;22327;51.208;6.418;2024-02-26T01:41:01;1.70;;;1.20;;
36291;SDS011;22327;51.208;6.418;2024-02-26T01:44:02;2.72;;;1.50;;
36291;SDS011;22327;51.208;6.418;2024-02-26T01:47:03;1.50;;;1.30;;
36291;SDS011;22327;51.208;6.418;2024-02-26T01:50:04;1.83;;;1.05;;
36291;SDS011;22327;51.208;6.418;2024-02-26T01:53:06;1.38;;;1.20;;
36291;SDS011;22327;51.208;6.418;2024-02-26T01:56:07;1.80;;;1.10;;
36291;SDS011;22327;51.208;6.418;2024-02-26T01:59:08;2.38;;;1.00;;
36291;SDS011;22327;51.208;6.418;2024-02-26T02:02:09;1.25;;;0.90;;
36291;SDS011;22327;51.208;6.418;2024-02-26T02:05:11;2.42;;;1.23;;
36291;SDS011;22327;51.208;6.418;2024-02-26T02:08:12;0.93;;;0.80;;
36291;SDS011;22327;51.208;6.418;2024-02-26T02:11:14;2.67;;;1.20;;
36291;SDS011;22327;51.208;6.418;2024-02-26T02:14:15;1.08;;;0.85;;
36291;SDS011;22327;51.208;6.418;2024-02-26T02:17:15;1.40;;;1.13;;
36291;SDS011;22327;51.208;6.418;2024-02-26T02:20:16;1.42;;;0.88;;
36291;SDS011;22327;51.208;6.418;2024-02-26T02:23:17;3.67;;;1.20;;
36291;SDS011;22327;51.208;6.418;2024-02-26T02:26:18;1.17;;;1.05;;
36291;SDS011;22327;51.208;6.418;2024-02-26T02:29:19;1.55;;;1.20;;
36291;SDS011;22327;51.208;6.418;2024-02-26T02:32:20;1.85;;;1.30;;
36291;SDS011;22327;51.208;6.418;2024-02-26T02:35:22;1.42;;;0.98;;
36291;SDS011;22327;51.208;6.418;2024-02-26T02:38:22;1.20;;;1.00;;
36291;SDS011;22327;51.208;6.418;2024-02-26T02:41:23;1.17;;;0.75;;
36291;SDS011;22327;51.208;6.418;2024-02-26T02:44:26;1.02;;;0.85;;
36291;SDS011;22327;51.208;6.418;2024-02-26T02:47:26;1.98;;;1.10;;
36291;SDS011;22327;51.208;6.418;2024-02-26T02:50:27;0.73;;;0.60;;
36291;SDS011;22327;51.208;6.418;2024-02-26T02:53:29;1.45;;;1.20;;
36291;SDS011;22327;51.208;6.418;2024-02-26T02:56:29;2.00;;;1.10;;
36291;SDS011;22327;51.208;6.418;2024-02-26T02:59:30;1.65;;;1.35;;
36291;SDS011;22327;51.208;6.418;2024-02-26T03:02:30;2.67;;;1.42;;
36291;SDS011;22327;51.208;6.418;2024-02-26T03:05:31;3.03;;;1.30;;
36291;SDS011;22327;51.208;6.418;2024-02-26T03:08:31;1.42;;;1.33;;
36291;SDS011;22327;51.208;6.418;2024-02-26T03:11:32;2.90;;;1.23;;
36291;SDS011;22327;51.208;6.418;2024-02-26T03:14:32;1.40;;;1.00;;
36291;SDS011;22327;51.208;6.418;2024-02-26T03:17:33;1.77;;;1.50;;
36291;SDS011;22327;51.208;6.418;2024-02-26T03:20:33;2.13;;;1.33;;
36291;SDS011;22327;51.208;6.418;2024-02-26T03:23:34;1.38;;;1.27;;
36291;SDS011;22327;51.208;6.418;2024-02-26T03:26:37;1.10;;;1.00;;
36291;SDS011;22327;51.208;6.418;2024-02-26T03:29:38;3.20;;;1.55;;
36291;SDS011;22327;51.208;6.418;2024-02-26T03:32:39;1.85;;;1.00;;
36291;SDS011;22327;51.208;6.418;2024-02-26T03:35:39;2.20;;;0.98;;
36291;SDS011;22327;51.208;6.418;2024-02-26T03:38:40;1.80;;;1.00;;
36291;SDS011;22327;51.208;6.418;2024-02-26T03:41:40;1.83;;;1.30;;
36291;SDS011;22327;51.208;6.418;2024-02-26T03:44:41;3.17;;;0.98;;
36291;SDS011;22327;51.208;6.418;2024-02-26T03:47:41;2.72;;;1.20;;
36291;SDS011;22327;51.208;6.418;2024-02-26T03:50:42;2.75;;;1.30;;
36291;SDS011;22327;51.208;6.418;2024-02-26T03:53:42;1.30;;;1.20;;
36291;SDS011;22327;51.208;6.418;2024-02-26T03:56:43;1.23;;;0.95;;
36291;SDS011;22327;51.208;6.418;2024-02-26T03:59:43;1.58;;;1.30;;
36291;SDS011;22327;51.208;6.418;2024-02-26T04:02:44;1.67;;;1.15;;
36291;SDS011;22327;51.208;6.418;2024-02-26T04:05:44;1.90;;;1.13;;
36291;SDS011;22327;51.208;6.418;2024-02-26T04:08:45;1.65;;;1.20;;
36291;SDS011;22327;51.208;6.418;2024-02-26T04:11:45;2.00;;;1.10;;
36291;SDS011;22327;51.208;6.418;2024-02-26T04:14:46;1.80;;;1.10;;
36291;SDS011;22327;51.208;6.418;2024-02-26T04:17:46;1.25;;;0.90;;
36291;SDS011;22327;51.208;6.418;2024-02-26T04:20:47;0.70;;;0.60;;
36291;SDS011;22327;51.208;6.418;2024-02-26T04:23:47;1.63;;;1.20;;
36291;SDS011;22327;51.208;6.418;2024-02-26T04:26:49;2.72;;;1.27;;
36291;SDS011;22327;51.208;6.418;2024-02-26T04:29:49;1.48;;;0.93;;
36291;SDS011;22327;51.208;6.418;2024-02-26T04:32:50;2.75;;;1.33;;
36291;SDS011;22327;51.208;6.418;2024-02-26T04:35:50;2.60;;;1.38;;
36291;SDS011;22327;51.208;6.418;2024-02-26T04:38:51;2.08;;;1.23;;
36291;SDS011;22327;51.208;6.418;2024-02-26T04:41:54;2.17;;;1.48;;
36291;SDS011;22327;51.208;6.418;2024-02-26T04:44:55;2.42;;;1.48;;
36291;SDS011;22327;51.208;6.418;2024-02-26T04:47:55;2.10;;;1.90;;
36291;SDS011;22327;51.208;6.418;2024-02-26T04:50:56;2.83;;;2.10;;
36291;SDS011;22327;51.208;6.418;2024-02-26T04:53:56;2.45;;;2.15;;
36291;SDS011;22327;51.208;6.418;2024-02-26T04:56:57;2.38;;;1.80;;
36291;SDS011;22327;51.208;6.418;2024-02-26T04:59:57;3.90;;;1.75;;
36291;SDS011;22327;51.208;6.418;2024-02-26T05:02:58;4.65;;;1.98;;
36291;SDS011;22327;51.208;6.418;2024-02-26T05:05:58;2.85;;;2.10;;
36291;SDS011;22327;51.208;6.418;2024-02-26T05:09:00;4.50;;;1.85;;
36291;SDS011;22327;51.208;6.418;2024-02-26T05:12:01;3.42;;;2.03;;
36291;SDS011;22327;51.208;6.418;2024-02-26T05:15:02;1.60;;;1.30;;
36291;SDS011;22327;51.208;6.418;2024-02-26T05:18:03;2.33;;;1.80;;
36291;SDS011;22327;51.208;6.418;2024-02-26T05:21:04;3.13;;;1.73;;
36291;SDS011;22327;51.208;6.418;2024-02-26T05:24:04;3.13;;;2.05;;
36291;SDS011;22327;51.208;6.418;2024-02-26T05:27:06;4.50;;;2.50;;
36291;SDS011;22327;51.208;6.418;2024-02-26T05:30:07;2.97;;;1.95;;
36291;SDS011;22327;51.208;6.418;2024-02-26T05:33:08;3.15;;;2.20;;
36291;SDS011;22327;51.208;6.418;2024-02-26T05:36:08;3.00;;;1.75;;
36291;SDS011;22327;51.208;6.418;2024-02-26T05:39:09;2.90;;;2.15;;
36291;SDS011;22327;51.208;6.418;2024-02-26T05:42:11;3.38;;;2.38;;
36291;SDS011;22327;51.208;6.418;2024-02-26T05:45:12;5.38;;;3.03;;
36291;SDS011;22327;51.208;6.418;2024-02-26T05:48:12;2.55;;;2.13;;
36291;SDS011;22327;51.208;6.418;2024-02-26T05:51:13;2.92;;;1.90;;
36291;SDS011;22327;51.208;6.418;2024-02-26T05:54:14;3.10;;;2.10;;
36291;SDS011;22327;51.208;6.418;2024-02-26T05:57:14;3.40;;;1.95;;
36291;SDS011;22327;51.208;6.418;2024-02-26T06:00:15;5.60;;;3.17;;
36291;SDS011;22327;51.208;6.418;2024-02-26T06:03:16;4.82;;;3.42;;
36291;SDS011;22327;51.208;6.418;2024-02-26T06:06:16;6.32;;;3.42;;
36291;SDS011;22327;51.208;6.418;2024-02-26T06:09:17;5.63;;;3.30;;
36291;SDS011;22327;51.208;6.418;2024-02-26T06:12:18;4.93;;;3.95;;
36291;SDS011;22327;51.208;6.418;2024-02-26T06:15:18;4.80;;;3.72;;
36291;SDS011;22327;51.208;6.418;2024-02-26T06:18:19;6.30;;;4.40;;
36291;SDS011;22327;51.208;6.418;2024-02-26T06:21:19;4.88;;;4.32;;
36291;SDS011;22327;51.208;6.418;2024-02-26T06:24:20;4.30;;;3.53;;
36291;SDS011;22327;51.208;6.418;2024-02-26T06:27:22;5.63;;;3.90;;
36291;SDS011;22327;51.208;6.418;2024-02-26T06:30:23;6.80;;;5.00;;
36291;SDS011;22327;51.208;6.418;2024-02-26T06:33:24;4.47;;;3.50;;
36291;SDS011;22327;51.208;6.418;2024-02-26T06:36:24;6.13;;;4.90;;
36291;SDS011;22327;51.208;6.418;2024-02-26T06:39:25;6.93;;;4.72;;
36291;SDS011;22327;51.208;6.418;2024-02-26T06:42:26;5.90;;;4.43;;
36291;SDS011;22327;51.208;6.418;2024-02-26T06:45:26;6.38;;;4.90;;
36291;SDS011;22327;51.208;6.418;2024-02-26T06:48:27;6.10;;;4.45;;
36291;SDS011;22327;51.208;6.418;2024-02-26T06:51:27;5.78;;;3.72;;
36291;SDS011;22327;51.208;6.418;2024-02-26T06:54:28;6.20;;;5.22;;
36291;SDS011;22327;51.208;6.418;2024-02-26T06:57:28;6.72;;;4.25;;
36291;SDS011;22327;51.208;6.418;2024-02-26T07:00:29;7.80;;;5.18;;
36291;SDS011;22327;51.208;6.418;2024-02-26T07:03:29;6.38;;;5.07;;
36291;SDS011;22327;51.208;6.418;2024-02-26T07:06:30;6.03;;;4.03;;
36291;SDS011;22327;51.208;6.418;2024-02-26T07:09:30;6.47;;;4.57;;
36291;SDS011;22327;51.208;6.418;2024-02-26T07:12:31;6.40;;;4.50;;
36291;SDS011;22327;51.208;6.418;2024-02-26T07:15:32;5.03;;;3.75;;
36291;SDS011;22327;51.208;6.418;2024-02-26T07:18:33;5.07;;;3.42;;
36291;SDS011;22327;51.208;6.418;2024-02-26T07:21:33;5.78;;;4.20;;
36291;SDS011;22327;51.208;6.418;2024-02-26T07:24:34;6.47;;;4.35;;
36291;SDS011;22327;51.208;6.418;2024-02-26T07:27:34;2.83;;;2.20;;
36291;SDS011;22327;51.208;6.418;2024-02-26T07:30:35;3.10;;;2.28;;
36291;SDS011;22327;51.208;6.418;2024-02-26T07:33:36;8.23;;;4.15;;
36291;SDS011;22327;51.208;6.418;2024-02-26T07:36:36;7.95;;;4.55;;
36291;SDS011;22327;51.208;6.418;2024-02-26T07:39:37;6.50;;;4.30;;
36291;SDS011;22327;51.208;6.418;2024-02-26T07:42:37;5.40;;;4.07;;
36291;SDS011;22327;51.208;6.418;2024-02-26T07:45:39;4.97;;;3.83;;
36291;SDS011;22327;51.208;6.418;2024-02-26T07:48:39;8.02;;;3.97;;
36291;SDS011;22327;51.208;6.418;2024-02-26T07:51:41;4.38;;;3.95;;
36291;SDS011;22327;51.208;6.418;2024-02-26T07:54:42;3.42;;;2.45;;
36291;SDS011;22327;51.208;6.418;2024-02-26T07:57:42;5.10;;;3.38;;
36291;SDS011;22327;51.208;6.418;2024-02-26T08:00:46;5.40;;;3.17;;
36291;SDS011;22327;51.208;6.418;2024-02-26T08:03:46;5.72;;;4.03;;
36291;SDS011;22327;51.208;6.418;2024-02-26T08:06:47;5.80;;;3.60;;
36291;SDS011;22327;51.208;6.418;2024-02-26T08:09:47;4.70;;;4.00;;
36291;SDS011;22327;51.208;6.418;2024-02-26T08:12:48;5.75;;;5.15;;
36291;SDS011;22327;51.208;6.418;2024-02-26T08:15:48;5.38;;;3.13;;
36291;SDS011;22327;51.208;6.418;2024-02-26T08:18:50;5.93;;;4.30;;
36291;SDS011;22327;51.208;6.418;2024-02-26T08:21:50;5.82;;;3.80;;
36291;SDS011;22327;51.208;6.418;2024-02-26T08:24:51;6.25;;;3.45;;
36291;SDS011;22327;51.208;6.418;2024-02-26T08:27:51;5.43;;;3.85;;
36291;SDS011;22327;51.208;6.418;2024-02-26T08:30:52;5.65;;;3.78;;
36291;SDS011;22327;51.208;6.418;2024-02-26T08:33:52;4.25;;;3.55;;
36291;SDS011;22327;51.208;6.418;2024-02-26T08:36:53;4.57;;;3.38;;
36291;SDS011;22327;51.208;6.418;2024-02-26T08:39:54;5.45;;;3.95;;
36291;SDS011;22327;51.208;6.418;2024-02-26T08:42:54;5.93;;;3.65;;
36291;SDS011;22327;51.208;6.418;2024-02-26T08:45:56;7.25;;;4.20;;
36291;SDS011;22327;51.208;6.418;2024-02-26T08:48:57;6.93;;;4.32;;
36291;SDS011;22327;51.208;6.418;2024-02-26T08:51:57;5.97;;;3.72;;
36291;SDS011;22327;51.208;6.418;2024-02-26T08:54:58;4.00;;;3.25;;
36291;SDS011;22327;51.208;6.418;2024-02-26T08:57:58;5.90;;;3.88;;
36291;SDS011;22327;51.208;6.418;2024-02-26T09:00:59;2.75;;;2.22;;
36291;SDS011;22327;51.208;6.418;2024-02-26T09:03:59;6.68;;;4.20;;
36291;SDS011;22327;51.208;6.418;2024-02-26T09:07:00;4.97;;;2.90;;
36291;SDS011;22327;51.208;6.418;2024-02-26T09:10:01;4.97;;;3.17;;
36291;SDS011;22327;51.208;6.418;2024-02-26T09:13:02;3.85;;;2.92;;
36291;SDS011;22327;51.208;6.418;2024-02-26T09:16:03;3.38;;;2.13;;
36291;SDS011;22327;51.208;6.418;2024-02-26T09:19:03;7.00;;;3.42;;
36291;SDS011;22327;51.208;6.418;2024-02-26T09:22:04;7.90;;;3.35;;
36291;SDS011;22327;51.208;6.418;2024-02-26T09:25:05;6.68;;;4.00;;
36291;SDS011;22327;51.208;6.418;2024-02-26T09:28:06;4.90;;;3.85;;
36291;SDS011;22327;51.208;6.418;2024-02-26T09:31:07;3.65;;;2.83;;
36291;SDS011;22327;51.208;6.418;2024-02-26T09:34:07;5.00;;;3.90;;
36291;SDS011;22327;51.208;6.418;2024-02-26T09:37:08;4.85;;;3.65;;
36291;SDS011;22327;51.208;6.418;2024-02-26T09:40:08;6.43;;;4.15;;
36291;SDS011;22327;51.208;6.418;2024-02-26T09:43:14;5.68;;;4.00;;
36291;SDS011;22327;51.208;6.418;2024-02-26T09:46:15;6.68;;;5.13;;
36291;SDS011;22327;51.208;6.418;2024-02-26T09:49:20;5.47;;;3.70;;
36291;SDS011;22327;51.208;6.418;2024-02-26T09:52:23;8.90;;;4.32;;
36291;SDS011;22327;51.208;6.418;2024-02-26T09:55:24;4.55;;;2.67;;
36291;SDS011;22327;51.208;6.418;2024-02-26T09:58:25;5.82;;;3.60;;
36291;SDS011;22327;51.208;6.418;2024-02-26T10:01:28;3.40;;;2.92;;
36291;SDS011;22327;51.208;6.418;2024-02-26T10:04:33;8.32;;;4.57;;
36291;SDS011;22327;51.208;6.418;2024-02-26T10:07:34;5.50;;;3.30;;
36291;SDS011;22327;51.208;6.418;2024-02-26T10:10:35;6.53;;;3.92;;
36291;SDS011;22327;51.208;6.418;2024-02-26T10:13:37;7.72;;;3.75;;
36291;SDS011;22327;51.208;6.418;2024-02-26T10:16:38;6.45;;;4.28;;
36291;SDS011;22327;51.208;6.418;2024-02-26T10:19:39;5.63;;;3.85;;
36291;SDS011;22327;51.208;6.418;2024-02-26T10:22:40;4.63;;;3.75;;
36291;SDS011;22327;51.208;6.418;2024-02-26T10:25:52;4.88;;;3.28;;
36291;SDS011;22327;51.208;6.418;2024-02-26T10:28:55;6.63;;;4.00;;
36291;SDS011;22327;51.208;6.418;2024-02-26T10:32:01;7.43;;;4.30;;
36291;SDS011;22327;51.208;6.418;2024-02-26T10:35:01;5.50;;;4.05;;
36291;SDS011;22327;51.208;6.418;2024-02-26T10:38:03;4.18;;;2.78;;
36291;SDS011;22327;51.208;6.418;2024-02-26T10:41:04;5.65;;;4.45;;
36291;SDS011;22327;51.208;6.418;2024-02-26T10:44:08;4.97;;;3.33;;
36291;SDS011;22327;51.208;6.418;2024-02-26T10:50:10;6.75;;;4.07;;
36291;SDS011;22327;51.208;6.418;2024-02-26T10:53:19;5.60;;;3.95;;
36291;SDS011;22327;51.208;6.418;2024-02-26T10:56:21;3.95;;;3.45;;
36291;SDS011;22327;51.208;6.418;2024-02-26T10:59:25;5.85;;;4.00;;
36291;SDS011;22327;51.208;6.418;2024-02-26T11:02:26;5.90;;;3.80;;
36291;SDS011;22327;51.208;6.418;2024-02-26T11:05:27;5.65;;;4.28;;
36291;SDS011;22327;51.208;6.418;2024-02-26T11:08:29;6.40;;;3.47;;
36291;SDS011;22327;51.208;6.418;2024-02-26T11:11:32;3.58;;;2.50;;
36291;SDS011;22327;51.208;6.418;2024-02-26T11:14:35;9.07;;;4.57;;
36291;SDS011;22327;51.208;6.418;2024-02-26T11:17:36;4.80;;;3.80;;
36291;SDS011;22327;51.208;6.418;2024-02-26T11:20:38;7.22;;;4.80;;
36291;SDS011;22327;51.208;6.418;2024-02-26T11:23:40;6.18;;;4.68;;
36291;SDS011;22327;51.208;6.418;2024-02-26T11:26:46;8.65;;;5.78;;
36291;SDS011;22327;51.208;6.418;2024-02-26T11:29:50;7.55;;;5.00;;
36291;SDS011;22327;51.208;6.418;2024-02-26T11:32:53;5.83;;;4.33;;
36291;SDS011;22327;51.208;6.418;2024-02-26T11:35:54;7.78;;;5.38;;
36291;SDS011;22327;51.208;6.418;2024-02-26T11:38:55;3.85;;;3.05;;
36291;SDS011;22327;51.208;6.418;2024-02-26T11:42:04;6.70;;;5.38;;
36291;SDS011;22327;51.208;6.418;2024-02-26T11:45:07;7.75;;;4.97;;
36291;SDS011;22327;51.208;6.418;2024-02-26T11:49:00;7.65;;;5.50;;
36291;SDS011;22327;51.208;6.418;2024-02-26T11:52:04;8.00;;;5.83;;
36291;SDS011;22327;51.208;6.418;2024-02-26T11:55:07;8.57;;;6.25;;
36291;SDS011;22327;51.208;6.418;2024-02-26T11:58:09;7.60;;;5.85;;
36291;SDS011;22327;51.208;6.418;2024-02-26T12:04:38;7.70;;;5.07;;
36291;SDS011;22327;51.208;6.418;2024-02-26T12:07:40;7.68;;;5.68;;
36291;SDS011;22327;51.208;6.418;2024-02-26T12:10:42;8.40;;;4.82;;
36291;SDS011;22327;51.208;6.418;2024-02-26T12:13:46;10.10;;;5.25;;
36291;SDS011;22327;51.208;6.418;2024-02-26T12:16:49;5.20;;;3.90;;
36291;SDS011;22327;51.208;6.418;2024-02-26T12:19:51;5.53;;;4.07;;
36291;SDS011;22327;51.208;6.418;2024-02-26T12:22:53;9.15;;;6.28;;
36291;SDS011;22327;51.208;6.418;2024-02-26T12:25:58;8.15;;;5.15;;
36291;SDS011;22327;51.208;6.418;2024-02-26T12:29:00;8.80;;;5.70;;
36291;SDS011;22327;51.208;6.418;2024-02-26T12:32:00;11.65;;;6.65;;
36291;SDS011;22327;51.208;6.418;2024-02-26T12:35:03;11.82;;;7.57;;
36291;SDS011;22327;51.208;6.418;2024-02-26T12:38:05;10.02;;;7.45;;
36291;SDS011;22327;51.208;6.418;2024-02-26T12:41:06;9.63;;;7.43;;
36291;SDS011;22327;51.208;6.418;2024-02-26T12:44:07;12.98;;;8.07;;
36291;SDS011;22327;51.208;6.418;2024-02-26T12:47:08;13.10;;;8.30;;
36291;SDS011;22327;51.208;6.418;2024-02-26T12:50:10;8.32;;;5.07;;
36291;SDS011;22327;51.208;6.418;2024-02-26T12:53:11;10.60;;;6.65;;
36291;SDS011;22327;51.208;6.418;2024-02-26T12:56:12;13.57;;;7.60;;
36291;SDS011;22327;51.208;6.418;2024-02-26T12:59:12;12.55;;;8.80;;
36291;SDS011;22327;51.208;6.418;2024-02-26T13:02:14;10.77;;;8.00;;
36291;SDS011;22327;51.208;6.418;2024-02-26T13:05:14;16.63;;;9.18;;
36291;SDS011;22327;51.208;6.418;2024-02-26T13:08:19;11.00;;;7.05;;
36291;SDS011;22327;51.208;6.418;2024-02-26T13:11:20;14.05;;;9.75;;
36291;SDS011;22327;51.208;6.418;2024-02-26T13:14:21;14.38;;;9.05;;
36291;SDS011;22327;51.208;6.418;2024-02-26T13:17:22;9.50;;;6.25;;
36291;SDS011;22327;51.208;6.418;2024-02-26T13:20:25;13.87;;;8.73;;
36291;SDS011;22327;51.208;6.418;2024-02-26T13:23:28;15.03;;;9.20;;
36291;SDS011;22327;51.208;6.418;2024-02-26T13:26:28;17.20;;;11.00;;
36291;SDS011;22327;51.208;6.418;2024-02-26T13:29:29;16.98;;;10.55;;
36291;SDS011;22327;51.208;6.418;2024-02-26T13:32:31;16.27;;;10.32;;
36291;SDS011;22327;51.208;6.418;2024-02-26T13:35:32;17.85;;;9.73;;
36291;SDS011;22327;51.208;6.418;2024-02-26T13:38:34;14.75;;;9.93;;
36291;SDS011;22327;51.208;6.418;2024-02-26T13:41:35;13.63;;;10.13;;
36291;SDS011;22327;51.208;6.418;2024-02-26T13:44:35;18.55;;;11.25;;
36291;SDS011;22327;51.208;6.418;2024-02-26T13:47:39;16.20;;;10.15;;
36291;SDS011;22327;51.208;6.418;2024-02-26T13:50:41;14.02;;;9.90;;
36291;SDS011;22327;51.208;6.418;2024-02-26T13:53:45;18.30;;;10.75;;
36291;SDS011;22327;51.208;6.418;2024-02-26T13:56:46;15.70;;;10.27;;
36291;SDS011;22327;51.208;6.418;2024-02-26T13:59:46;17.27;;;11.23;;
36291;SDS011;22327;51.208;6.418;2024-02-26T14:02:47;16.20;;;9.77;;
36291;SDS011;22327;51.208;6.418;2024-02-26T14:05:48;17.02;;;9.93;;
36291;SDS011;22327;51.208;6.418;2024-02-26T14:08:49;13.98;;;8.40;;
36291;SDS011;22327;51.208;6.418;2024-02-26T14:11:49;15.20;;;9.48;;
36291;SDS011;22327;51.208;6.418;2024-02-26T14:14:50;13.63;;;9.02;;
36291;SDS011;22327;51.208;6.418;2024-02-26T14:17:53;15.17;;;10.20;;
36291;SDS011;22327;51.208;6.418;2024-02-26T14:20:56;14.70;;;9.93;;
36291;SDS011;22327;51.208;6.418;2024-02-26T14:23:56;13.50;;;8.38;;
36291;SDS011;22327;51.208;6.418;2024-02-26T14:26:57;15.35;;;9.00;;
36291;SDS011;22327;51.208;6.418;2024-02-26T14:29:57;13.82;;;8.73;;
36291;SDS011;22327;51.208;6.418;2024-02-26T14:32:58;13.23;;;9.68;;
36291;SDS011;22327;51.208;6.418;2024-02-26T14:35:58;13.07;;;8.63;;
36291;SDS011;22327;51.208;6.418;2024-02-26T14:38:59;11.40;;;7.57;;
36291;SDS011;22327;51.208;6.418;2024-02-26T14:41:59;10.77;;;8.10;;
36291;SDS011;22327;51.208;6.418;2024-02-26T14:45:00;12.65;;;8.88;;
36291;SDS011;22327;51.208;6.418;2024-02-26T14:48:01;8.75;;;6.70;;
36291;SDS011;22327;51.208;6.418;2024-02-26T14:51:02;9.88;;;6.85;;
36291;SDS011;22327;51.208;6.418;2024-02-26T14:54:05;11.43;;;7.70;;
36291;SDS011;22327;51.208;6.418;2024-02-26T14:57:05;9.73;;;7.40;;
36291;SDS011;22327;51.208;6.418;2024-02-26T15:00:06;6.22;;;4.30;;
36291;SDS011;22327;51.208;6.418;2024-02-26T15:03:07;8.85;;;6.65;;
36291;SDS011;22327;51.208;6.418;2024-02-26T15:06:08;9.93;;;6.03;;
36291;SDS011;22327;51.208;6.418;2024-02-26T15:09:09;7.38;;;5.78;;
36291;SDS011;22327;51.208;6.418;2024-02-26T15:12:09;6.93;;;5.20;;
36291;SDS011;22327;51.208;6.418;2024-02-26T15:15:10;5.78;;;4.68;;
36291;SDS011;22327;51.208;6.418;2024-02-26T15:18:11;8.43;;;5.15;;
36291;SDS011;22327;51.208;6.418;2024-02-26T15:21:15;7.38;;;5.15;;
36291;SDS011;22327;51.208;6.418;2024-02-26T15:24:16;6.22;;;3.72;;
36291;SDS011;22327;51.208;6.418;2024-02-26T15:27:17;4.65;;;3.72;;
36291;SDS011;22327;51.208;6.418;2024-02-26T15:30:17;9.32;;;6.32;;
36291;SDS011;22327;51.208;6.418;2024-02-26T15:33:18;8.48;;;5.80;;
36291;SDS011;22327;51.208;6.418;2024-02-26T15:36:18;6.38;;;5.38;;
36291;SDS011;22327;51.208;6.418;2024-02-26T15:39:19;8.57;;;6.03;;
36291;SDS011;22327;51.208;6.418;2024-02-26T15:42:21;8.38;;;5.28;;
36291;SDS011;22327;51.208;6.418;2024-02-26T15:45:21;9.07;;;5.15;;
36291;SDS011;22327;51.208;6.418;2024-02-26T15:48:24;8.13;;;6.03;;
36291;SDS011;22327;51.208;6.418;2024-02-26T15:51:25;6.93;;;5.70;;
36291;SDS011;22327;51.208;6.418;2024-02-26T15:54:25;8.18;;;6.03;;
36291;SDS011;22327;51.208;6.418;2024-02-26T15:57:26;7.18;;;4.93;;
36291;SDS011;22327;51.208;6.418;2024-02-26T16:00:26;7.32;;;6.18;;
36291;SDS011;22327;51.208;6.418;2024-02-26T16:03:27;6.25;;;4.97;;
36291;SDS011;22327;51.208;6.418;2024-02-26T16:10:08;9.27;;;5.43;;
36291;SDS011;22327;51.208;6.418;2024-02-26T16:13:09;8.93;;;6.30;;
36291;SDS011;22327;51.208;6.418;2024-02-26T16:16:13;6.60;;;4.15;;
36291;SDS011;22327;51.208;6.418;2024-02-26T16:19:17;9.70;;;6.28;;
36291;SDS011;22327;51.208;6.418;2024-02-26T16:22:18;8.13;;;5.57;;
36291;SDS011;22327;51.208;6.418;2024-02-26T16:25:19;8.60;;;6.25;;
36291;SDS011;22327;51.208;6.418;2024-02-26T16:28:20;7.88;;;5.90;;
36291;SDS011;22327;51.208;6.418;2024-02-26T16:31:24;6.70;;;3.85;;
36291;SDS011;22327;51.208;6.418;2024-02-26T16:34:25;9.60;;;6.15;;
36291;SDS011;22327;51.208;6.418;2024-02-26T16:37:26;12.13;;;6.50;;
36291;SDS011;22327;51.208;6.418;2024-02-26T16:40:28;5.63;;;3.88;;
36291;SDS011;22327;51.208;6.418;2024-02-26T16:43:29;10.15;;;5.90;;
36291;SDS011;22327;51.208;6.418;2024-02-26T16:46:31;8.23;;;4.72;;
36291;SDS011;22327;51.208;6.418;2024-02-26T16:49:33;13.10;;;8.25;;
36291;SDS011;22327;51.208;6.418;2024-02-26T16:52:34;7.75;;;5.25;;
36291;SDS011;22327;51.208;6.418;2024-02-26T16:55:35;14.20;;;8.13;;
36291;SDS011;22327;51.208;6.418;2024-02-26T16:58:35;12.90;;;7.60;;
36291;SDS011;22327;51.208;6.418;2024-02-26T17:01:36;13.60;;;8.40;;
36291;SDS011;22327;51.208;6.418;2024-02-26T17:04:36;14.30;;;9.75;;
36291;SDS011;22327;51.208;6.418;2024-02-26T17:07:37;14.07;;;9.13;;
36291;SDS011;22327;51.208;6.418;2024-02-26T17:10:38;10.70;;;7.47;;
36291;SDS011;22327;51.208;6.418;2024-02-26T17:13:38;13.82;;;8.10;;
36291;SDS011;22327;51.208;6.418;2024-02-26T17:16:39;14.73;;;8.70;;
36291;SDS011;22327;51.208;6.418;2024-02-26T17:19:39;12.52;;;6.43;;
36291;SDS011;22327;51.208;6.418;2024-02-26T17:22:40;9.60;;;6.53;;
36291;SDS011;22327;51.208;6.418;2024-02-26T17:25:40;14.93;;;9.32;;
36291;SDS011;22327;51.208;6.418;2024-02-26T17:28:41;13.20;;;9.98;;
36291;SDS011;22327;51.208;6.418;2024-02-26T17:31:42;8.25;;;5.38;;
36291;SDS011;22327;51.208;6.418;2024-02-26T17:34:43;13.68;;;8.32;;
36291;SDS011;22327;51.208;6.418;2024-02-26T17:37:44;12.43;;;7.50;;
36291;SDS011;22327;51.208;6.418;2024-02-26T17:40:45;13.27;;;8.65;;
36291;SDS011;22327;51.208;6.418;2024-02-26T17:43:45;12.88;;;8.55;;
36291;SDS011;22327;51.208;6.418;2024-02-26T17:46:46;14.98;;;9.48;;
36291;SDS011;22327;51.208;6.418;2024-02-26T17:49:46;15.00;;;9.18;;
36291;SDS011;22327;51.208;6.418;2024-02-26T17:52:47;11.77;;;8.05;;
36291;SDS011;22327;51.208;6.418;2024-02-26T17:55:49;12.85;;;9.23;;
36291;SDS011;22327;51.208;6.418;2024-02-26T17:58:49;19.10;;;10.70;;
36291;SDS011;22327;51.208;6.418;2024-02-26T18:01:50;13.13;;;8.68;;
36291;SDS011;22327;51.208;6.418;2024-02-26T18:04:51;15.13;;;8.98;;
36291;SDS011;22327;51.208;6.418;2024-02-26T18:07:51;13.45;;;8.07;;
36291;SDS011;22327;51.208;6.418;2024-02-26T18:10:52;13.98;;;9.52;;
36291;SDS011;22327;51.208;6.418;2024-02-26T18:13:53;14.32;;;8.27;;
36291;SDS011;22327;51.208;6.418;2024-02-26T18:16:53;10.70;;;7.40;;
36291;SDS011;22327;51.208;6.418;2024-02-26T18:19:54;13.57;;;8.63;;